sensor_id;sensor_type;location;lat;lon;timestamp;pressure;altitude;pressure_sealevel;temperature;humidity
83633;BME280;73595;53.084;6.696;2024-01-06T00:02:00;100420.22;;;0.93;99.38
83633;BME280;73595;53.084;6.696;2024-01-06T00:04:27;100429.72;;;0.94;99.75
83633;BME280;73595;53.084;6.696;2024-01-06T00:06:53;100437.41;;;0.96;99.40
83633;BME280;73595;53.084;6.696;2024-01-06T00:09:19;100426.25;;;0.82;99.46
83633;BME280;73595;53.084;6.696;2024-01-06T00:11:44;100443.22;;;0.88;99.60
83633;BME280;73595;53.084;6.696;2024-01-06T00:14:11;100446.56;;;0.90;99.30
83633;BME280;73595;53.084;6.696;2024-01-06T00:16:38;100465.72;;;0.89;99.47
83633;BME280;73595;53.084;6.696;2024-01-06T00:19:03;100420.31;;;0.69;99.67
83633;BME280;73595;53.084;6.696;2024-01-06T00:21:28;100417.13;;;0.66;99.74
83633;BME280;73595;53.084;6.696;2024-01-06T00:23:55;100463.97;;;0.78;99.33
83633;BME280;73595;53.084;6.696;2024-01-06T00:26:21;100470.72;;;0.92;99.69
83633;BME280;73595;53.084;6.696;2024-01-06T00:28:46;100476.16;;;0.89;99.43
83633;BME280;73595;53.084;6.696;2024-01-06T00:31:14;100487.41;;;0.90;99.14
83633;BME280;73595;53.084;6.696;2024-01-06T00:33:42;100429.06;;;0.46;99.34
83633;BME280;73595;53.084;6.696;2024-01-06T00:36:08;100419.91;;;0.40;98.79
83633;BME280;73595;53.084;6.696;2024-01-06T00:38:35;100497.03;;;0.78;98.82
83633;BME280;73595;53.084;6.696;2024-01-06T00:41:01;100499.84;;;0.75;98.94
83633;BME280;73595;53.084;6.696;2024-01-06T00:43:29;100469.72;;;0.60;98.33
83633;BME280;73595;53.084;6.696;2024-01-06T00:45:55;100501.88;;;0.82;98.87
83633;BME280;73595;53.084;6.696;2024-01-06T00:48:20;100492.50;;;0.80;98.75
83633;BME280;73595;53.084;6.696;2024-01-06T00:50:46;100511.03;;;0.88;99.00
83633;BME280;73595;53.084;6.696;2024-01-06T00:53:13;100492.34;;;0.70;98.86
83633;BME280;73595;53.084;6.696;2024-01-06T00:55:39;100484.66;;;0.69;98.77
83633;BME280;73595;53.084;6.696;2024-01-06T00:58:04;100398.91;;;0.19;98.89
83633;BME280;73595;53.084;6.696;2024-01-06T01:00:33;100508.75;;;0.84;99.31
83633;BME280;73595;53.084;6.696;2024-01-06T01:02:58;100518.72;;;0.78;98.89
83633;BME280;73595;53.084;6.696;2024-01-06T01:05:24;100516.09;;;0.78;99.31
83633;BME280;73595;53.084;6.696;2024-01-06T01:07:49;100537.34;;;0.85;99.51
83633;BME280;73595;53.084;6.696;2024-01-06T01:10:14;100547.03;;;0.83;99.32
83633;BME280;73595;53.084;6.696;2024-01-06T01:12:40;100550.72;;;0.80;99.01
83633;BME280;73595;53.084;6.696;2024-01-06T01:15:08;100496.91;;;0.44;98.91
83633;BME280;73595;53.084;6.696;2024-01-06T01:17:33;100479.78;;;0.29;99.73
83633;BME280;73595;53.084;6.696;2024-01-06T01:19:59;100502.13;;;0.44;99.22
83633;BME280;73595;53.084;6.696;2024-01-06T01:22:25;100537.50;;;0.60;99.47
83633;BME280;73595;53.084;6.696;2024-01-06T01:24:50;100566.19;;;0.71;99.22
83633;BME280;73595;53.084;6.696;2024-01-06T01:27:15;100542.47;;;0.63;99.72
83633;BME280;73595;53.084;6.696;2024-01-06T01:29:41;100540.81;;;0.62;100.00
83633;BME280;73595;53.084;6.696;2024-01-06T01:32:06;100557.59;;;0.58;99.56
83633;BME280;73595;53.084;6.696;2024-01-06T01:34:31;100571.03;;;0.64;99.56
83633;BME280;73595;53.084;6.696;2024-01-06T01:36:57;100563.19;;;0.53;99.69
83633;BME280;73595;53.084;6.696;2024-01-06T01:39:22;100528.34;;;0.30;99.45
83633;BME280;73595;53.084;6.696;2024-01-06T01:41:47;100557.97;;;0.53;99.67
83633;BME280;73595;53.084;6.696;2024-01-06T01:44:13;100569.09;;;0.55;99.84
83633;BME280;73595;53.084;6.696;2024-01-06T01:46:38;100572.78;;;0.52;99.55
83633;BME280;73595;53.084;6.696;2024-01-06T01:49:04;100579.03;;;0.50;99.51
83633;BME280;73595;53.084;6.696;2024-01-06T01:51:34;100585.81;;;0.52;99.71
83633;BME280;73595;53.084;6.696;2024-01-06T01:54:01;100527.56;;;0.17;99.69
83633;BME280;73595;53.084;6.696;2024-01-06T01:56:29;100582.00;;;0.57;99.71
83633;BME280;73595;53.084;6.696;2024-01-06T01:59:00;100593.41;;;0.56;99.26
83633;BME280;73595;53.084;6.696;2024-01-06T02:01:26;100591.09;;;0.51;99.43
83633;BME280;73595;53.084;6.696;2024-01-06T02:03:52;100588.84;;;0.46;99.34
83633;BME280;73595;53.084;6.696;2024-01-06T02:06:17;100594.06;;;0.46;99.63
83633;BME280;73595;53.084;6.696;2024-01-06T02:08:43;100581.59;;;0.39;99.39
83633;BME280;73595;53.084;6.696;2024-01-06T02:11:10;100608.31;;;0.53;99.25
83633;BME280;73595;53.084;6.696;2024-01-06T02:13:36;100594.72;;;0.37;99.33
83633;BME280;73595;53.084;6.696;2024-01-06T02:16:03;100583.19;;;0.29;98.77
83633;BME280;73595;53.084;6.696;2024-01-06T02:18:30;100598.59;;;0.32;98.65
83633;BME280;73595;53.084;6.696;2024-01-06T02:20:58;100611.41;;;0.35;98.74
83633;BME280;73595;53.084;6.696;2024-01-06T02:23:25;100599.22;;;0.35;98.63
83633;BME280;73595;53.084;6.696;2024-01-06T02:25:51;100612.88;;;0.39;98.73
83633;BME280;73595;53.084;6.696;2024-01-06T02:28:16;100604.63;;;0.32;98.98
83633;BME280;73595;53.084;6.696;2024-01-06T02:30:43;100613.91;;;0.36;98.66
83633;BME280;73595;53.084;6.696;2024-01-06T02:33:08;100614.53;;;0.40;98.19
83633;BME280;73595;53.084;6.696;2024-01-06T02:35:34;100621.59;;;0.38;98.13
83633;BME280;73595;53.084;6.696;2024-01-06T02:38:01;100617.22;;;0.38;98.30
83633;BME280;73595;53.084;6.696;2024-01-06T02:40:26;100621.22;;;0.31;98.13
83633;BME280;73595;53.084;6.696;2024-01-06T02:42:52;100623.66;;;0.21;97.81
83633;BME280;73595;53.084;6.696;2024-01-06T02:45:18;100630.19;;;0.27;97.52
83633;BME280;73595;53.084;6.696;2024-01-06T02:47:45;100636.75;;;0.33;97.96
83633;BME280;73595;53.084;6.696;2024-01-06T02:50:10;100598.19;;;0.01;97.92
83633;BME280;73595;53.084;6.696;2024-01-06T02:52:35;100633.66;;;0.15;97.74
83633;BME280;73595;53.084;6.696;2024-01-06T02:55:03;100652.91;;;0.25;97.77
83633;BME280;73595;53.084;6.696;2024-01-06T02:57:29;100652.72;;;0.28;97.84
83633;BME280;73595;53.084;6.696;2024-01-06T02:59:55;100652.84;;;0.14;97.18
83633;BME280;73595;53.084;6.696;2024-01-06T03:02:21;100659.28;;;0.21;97.94
83633;BME280;73595;53.084;6.696;2024-01-06T03:04:46;100647.84;;;0.11;98.01
83633;BME280;73595;53.084;6.696;2024-01-06T03:07:12;100649.06;;;0.18;98.16
83633;BME280;73595;53.084;6.696;2024-01-06T03:09:37;100613.41;;;-0.06;97.93
83633;BME280;73595;53.084;6.696;2024-01-06T03:12:08;100646.19;;;0.10;98.03
83633;BME280;73595;53.084;6.696;2024-01-06T03:14:34;100650.03;;;0.04;98.34
83633;BME280;73595;53.084;6.696;2024-01-06T03:17:00;100657.84;;;0.17;98.40
83633;BME280;73595;53.084;6.696;2024-01-06T03:19:25;100646.50;;;0.05;98.05
83633;BME280;73595;53.084;6.696;2024-01-06T03:21:52;100662.94;;;0.06;98.28
83633;BME280;73595;53.084;6.696;2024-01-06T03:24:23;100662.44;;;0.01;98.37
83633;BME280;73595;53.084;6.696;2024-01-06T03:26:48;100675.13;;;0.05;98.44
83633;BME280;73595;53.084;6.696;2024-01-06T03:29:14;100685.25;;;0.10;98.50
83633;BME280;73595;53.084;6.696;2024-01-06T03:31:46;100682.00;;;0.06;98.53
83633;BME280;73595;53.084;6.696;2024-01-06T03:34:12;100683.47;;;0.10;98.82
83633;BME280;73595;53.084;6.696;2024-01-06T03:36:40;100681.19;;;0.06;98.38
83633;BME280;73595;53.084;6.696;2024-01-06T03:39:06;100664.13;;;0.02;98.76
83633;BME280;73595;53.084;6.696;2024-01-06T03:41:32;100690.47;;;0.10;98.88
83633;BME280;73595;53.084;6.696;2024-01-06T03:44:00;100689.22;;;0.03;98.88
83633;BME280;73595;53.084;6.696;2024-01-06T03:46:26;100694.63;;;-0.01;98.54
83633;BME280;73595;53.084;6.696;2024-01-06T03:48:51;100707.84;;;0.09;99.15
83633;BME280;73595;53.084;6.696;2024-01-06T03:51:21;100704.84;;;0.03;99.09
83633;BME280;73595;53.084;6.696;2024-01-06T03:53:48;100713.38;;;0.05;99.19
83633;BME280;73595;53.084;6.696;2024-01-06T03:56:13;100714.97;;;0.07;98.77
83633;BME280;73595;53.084;6.696;2024-01-06T03:58:40;100718.81;;;0.02;99.40
83633;BME280;73595;53.084;6.696;2024-01-06T04:01:05;100722.13;;;0.04;99.14
83633;BME280;73595;53.084;6.696;2024-01-06T04:03:31;100715.25;;;0.03;99.28
83633;BME280;73595;53.084;6.696;2024-01-06T04:05:57;100711.00;;;0.02;99.43
83633;BME280;73595;53.084;6.696;2024-01-06T04:08:22;100714.31;;;-0.09;98.86
83633;BME280;73595;53.084;6.696;2024-01-06T04:10:48;100736.94;;;0.03;98.49
83633;BME280;73595;53.084;6.696;2024-01-06T04:13:16;100739.41;;;-0.08;98.74
83633;BME280;73595;53.084;6.696;2024-01-06T04:15:42;100634.97;;;-0.67;98.40
83633;BME280;73595;53.084;6.696;2024-01-06T04:18:07;100749.66;;;0.08;98.66
83633;BME280;73595;53.084;6.696;2024-01-06T04:20:34;100740.06;;;-0.05;98.85
83633;BME280;73595;53.084;6.696;2024-01-06T04:23:00;100750.66;;;-0.08;98.56
83633;BME280;73595;53.084;6.696;2024-01-06T04:25:27;100734.63;;;-0.14;97.70
83633;BME280;73595;53.084;6.696;2024-01-06T04:27:52;100773.63;;;0.00;97.32
83633;BME280;73595;53.084;6.696;2024-01-06T04:30:19;100758.41;;;-0.06;97.59
83633;BME280;73595;53.084;6.696;2024-01-06T04:32:45;100734.84;;;-0.17;97.80
83633;BME280;73595;53.084;6.696;2024-01-06T04:35:15;100757.34;;;-0.04;97.30
83633;BME280;73595;53.084;6.696;2024-01-06T04:37:40;100770.91;;;0.02;97.69
83633;BME280;73595;53.084;6.696;2024-01-06T04:40:06;100769.22;;;0.01;97.21
83633;BME280;73595;53.084;6.696;2024-01-06T04:42:33;100769.22;;;0.01;97.10
83633;BME280;73595;53.084;6.696;2024-01-06T04:44:58;100775.47;;;-0.02;96.82
83633;BME280;73595;53.084;6.696;2024-01-06T04:47:24;100756.50;;;-0.04;97.26
83633;BME280;73595;53.084;6.696;2024-01-06T04:49:50;100771.63;;;0.04;97.37
83633;BME280;73595;53.084;6.696;2024-01-06T04:52:16;100775.88;;;0.05;96.95
83633;BME280;73595;53.084;6.696;2024-01-06T04:54:41;100746.38;;;-0.21;96.76
83633;BME280;73595;53.084;6.696;2024-01-06T04:57:08;100690.03;;;-0.61;96.78
83633;BME280;73595;53.084;6.696;2024-01-06T04:59:34;100762.66;;;-0.18;97.13
83633;BME280;73595;53.084;6.696;2024-01-06T05:01:59;100771.72;;;-0.11;96.88
83633;BME280;73595;53.084;6.696;2024-01-06T05:04:25;100796.41;;;-0.04;96.54
83633;BME280;73595;53.084;6.696;2024-01-06T05:06:53;100800.69;;;-0.03;96.90
83633;BME280;73595;53.084;6.696;2024-01-06T05:09:20;100792.75;;;-0.01;96.21
83633;BME280;73595;53.084;6.696;2024-01-06T05:11:46;100725.63;;;-0.48;96.61
83633;BME280;73595;53.084;6.696;2024-01-06T05:14:11;100789.66;;;-0.06;96.43
83633;BME280;73595;53.084;6.696;2024-01-06T05:16:37;100820.28;;;0.03;96.76
83633;BME280;73595;53.084;6.696;2024-01-06T05:19:03;100801.31;;;-0.12;96.77
83633;BME280;73595;53.084;6.696;2024-01-06T05:21:30;100808.06;;;-0.09;96.88
83633;BME280;73595;53.084;6.696;2024-01-06T05:23:56;100766.47;;;-0.36;95.95
83633;BME280;73595;53.084;6.696;2024-01-06T05:26:22;100841.09;;;0.03;96.28
83633;BME280;73595;53.084;6.696;2024-01-06T05:28:48;100830.69;;;0.03;96.18
83633;BME280;73595;53.084;6.696;2024-01-06T05:31:13;100816.53;;;-0.06;96.80
83633;BME280;73595;53.084;6.696;2024-01-06T05:33:39;100817.13;;;-0.15;96.67
83633;BME280;73595;53.084;6.696;2024-01-06T05:36:04;100791.16;;;-0.29;96.48
83633;BME280;73595;53.084;6.696;2024-01-06T05:38:31;100826.94;;;-0.06;96.19
83633;BME280;73595;53.084;6.696;2024-01-06T05:40:56;100794.50;;;-0.27;95.90
83633;BME280;73595;53.084;6.696;2024-01-06T05:43:23;100844.53;;;0.04;95.94
83633;BME280;73595;53.084;6.696;2024-01-06T05:45:48;100840.69;;;-0.04;96.35
83633;BME280;73595;53.084;6.696;2024-01-06T05:48:14;100850.16;;;-0.03;96.09
83633;BME280;73595;53.084;6.696;2024-01-06T05:50:41;100816.78;;;-0.23;96.73
83633;BME280;73595;53.084;6.696;2024-01-06T05:53:06;100780.41;;;-0.50;95.93
83633;BME280;73595;53.084;6.696;2024-01-06T05:55:32;100874.75;;;0.06;96.32
83633;BME280;73595;53.084;6.696;2024-01-06T05:57:58;100868.94;;;0.03;96.81
83633;BME280;73595;53.084;6.696;2024-01-06T06:00:23;100829.09;;;-0.25;96.50
83633;BME280;73595;53.084;6.696;2024-01-06T06:02:49;100874.44;;;-0.02;96.47
83633;BME280;73595;53.084;6.696;2024-01-06T06:05:14;100882.13;;;-0.01;96.45
83633;BME280;73595;53.084;6.696;2024-01-06T06:07:39;100895.69;;;0.05;96.39
83633;BME280;73595;53.084;6.696;2024-01-06T06:10:09;100853.84;;;-0.19;95.73
83633;BME280;73595;53.084;6.696;2024-01-06T06:12:35;100889.75;;;0.03;96.72
83633;BME280;73595;53.084;6.696;2024-01-06T06:15:01;100895.81;;;0.03;96.08
83633;BME280;73595;53.084;6.696;2024-01-06T06:17:30;100912.81;;;0.09;96.42
83633;BME280;73595;53.084;6.696;2024-01-06T06:19:59;100908.94;;;0.02;96.09
83633;BME280;73595;53.084;6.696;2024-01-06T06:22:25;100918.13;;;0.07;96.55
83633;BME280;73595;53.084;6.696;2024-01-06T06:24:59;100931.03;;;0.09;96.49
83633;BME280;73595;53.084;6.696;2024-01-06T06:27:26;100924.25;;;0.06;96.05
83633;BME280;73595;53.084;6.696;2024-01-06T06:29:52;100909.03;;;0.00;95.39
83633;BME280;73595;53.084;6.696;2024-01-06T06:32:18;100920.28;;;0.01;96.21
83633;BME280;73595;53.084;6.696;2024-01-06T06:34:43;100942.06;;;0.12;95.71
83633;BME280;73595;53.084;6.696;2024-01-06T06:37:09;100937.81;;;0.11;95.80
83633;BME280;73595;53.084;6.696;2024-01-06T06:39:35;100852.66;;;-0.41;95.28
83633;BME280;73595;53.084;6.696;2024-01-06T06:42:01;100914.66;;;-0.06;95.54
83633;BME280;73595;53.084;6.696;2024-01-06T06:44:28;100943.00;;;0.11;95.64
83633;BME280;73595;53.084;6.696;2024-01-06T06:46:57;100961.25;;;0.11;95.70
83633;BME280;73595;53.084;6.696;2024-01-06T06:49:23;100950.28;;;0.06;95.40
83633;BME280;73595;53.084;6.696;2024-01-06T06:51:52;100951.03;;;0.08;95.53
83633;BME280;73595;53.084;6.696;2024-01-06T06:54:17;100963.13;;;0.09;95.56
83633;BME280;73595;53.084;6.696;2024-01-06T06:56:43;100900.38;;;-0.28;95.46
83633;BME280;73595;53.084;6.696;2024-01-06T06:59:08;100958.09;;;0.06;95.53
83633;BME280;73595;53.084;6.696;2024-01-06T07:01:34;100881.56;;;-0.45;95.36
83633;BME280;73595;53.084;6.696;2024-01-06T07:04:00;100992.66;;;0.22;94.98
83633;BME280;73595;53.084;6.696;2024-01-06T07:06:27;100985.91;;;0.20;95.34
83633;BME280;73595;53.084;6.696;2024-01-06T07:08:54;100989.91;;;0.11;95.09
83633;BME280;73595;53.084;6.696;2024-01-06T07:11:19;101001.81;;;0.15;95.19
83633;BME280;73595;53.084;6.696;2024-01-06T07:13:44;100987.63;;;0.07;94.88
83633;BME280;73595;53.084;6.696;2024-01-06T07:16:10;100992.41;;;0.13;95.63
83633;BME280;73595;53.084;6.696;2024-01-06T07:18:37;101002.81;;;0.13;95.27
83633;BME280;73595;53.084;6.696;2024-01-06T07:21:04;101010.47;;;0.16;95.72
83633;BME280;73595;53.084;6.696;2024-01-06T07:23:31;101006.38;;;0.12;95.14
83633;BME280;73595;53.084;6.696;2024-01-06T07:25:56;101019.94;;;0.17;94.99
83633;BME280;73595;53.084;6.696;2024-01-06T07:28:23;101017.56;;;0.14;94.89
83633;BME280;73595;53.084;6.696;2024-01-06T07:30:48;101022.84;;;0.12;94.21
83633;BME280;73595;53.084;6.696;2024-01-06T07:33:13;101037.91;;;0.21;94.38
83633;BME280;73595;53.084;6.696;2024-01-06T07:35:40;101028.03;;;0.12;94.35
83633;BME280;73595;53.084;6.696;2024-01-06T07:38:12;100951.19;;;-0.35;94.28
83633;BME280;73595;53.084;6.696;2024-01-06T07:40:38;101059.91;;;0.30;94.29
83633;BME280;73595;53.084;6.696;2024-01-06T07:43:05;101069.13;;;0.36;94.28
83633;BME280;73595;53.084;6.696;2024-01-06T07:45:31;101067.56;;;0.33;94.51
83633;BME280;73595;53.084;6.696;2024-01-06T07:48:00;101072.56;;;0.36;94.82
83633;BME280;73595;53.084;6.696;2024-01-06T07:50:26;101052.19;;;0.29;94.00
83633;BME280;73595;53.084;6.696;2024-01-06T07:52:54;101077.75;;;0.36;93.72
83633;BME280;73595;53.084;6.696;2024-01-06T07:55:20;101074.75;;;0.42;93.58
83633;BME280;73595;53.084;6.696;2024-01-06T07:57:51;101020.53;;;0.08;93.50
83633;BME280;73595;53.084;6.696;2024-01-06T08:00:24;101082.88;;;0.38;93.53
83633;BME280;73595;53.084;6.696;2024-01-06T08:02:52;101049.53;;;0.16;93.97
83633;BME280;73595;53.084;6.696;2024-01-06T08:05:20;100999.38;;;-0.15;93.71
83633;BME280;73595;53.084;6.696;2024-01-06T08:07:53;101090.63;;;0.39;93.80
83633;BME280;73595;53.084;6.696;2024-01-06T08:10:43;101087.25;;;0.37;94.03
83633;BME280;73595;53.084;6.696;2024-01-06T08:13:17;101079.00;;;0.31;93.55
83633;BME280;73595;53.084;6.696;2024-01-06T08:15:44;101102.50;;;0.43;93.98
83633;BME280;73595;53.084;6.696;2024-01-06T08:18:10;101096.56;;;0.41;94.08
83633;BME280;73595;53.084;6.696;2024-01-06T08:20:46;101084.75;;;0.36;94.00
83633;BME280;73595;53.084;6.696;2024-01-06T08:23:12;101106.78;;;0.44;93.96
83633;BME280;73595;53.084;6.696;2024-01-06T08:25:37;101111.53;;;0.38;93.42
83633;BME280;73595;53.084;6.696;2024-01-06T08:28:03;101130.34;;;0.43;93.32
83633;BME280;73595;53.084;6.696;2024-01-06T08:30:34;101094.75;;;0.15;93.33
83633;BME280;73595;53.084;6.696;2024-01-06T08:33:01;101115.84;;;0.39;93.68
83633;BME280;73595;53.084;6.696;2024-01-06T08:35:48;101130.16;;;0.46;93.72
83633;BME280;73595;53.084;6.696;2024-01-06T08:38:35;101112.69;;;0.34;94.10
83633;BME280;73595;53.084;6.696;2024-01-06T08:41:00;101138.38;;;0.40;94.08
83633;BME280;73595;53.084;6.696;2024-01-06T08:43:33;101135.53;;;0.43;93.38
83633;BME280;73595;53.084;6.696;2024-01-06T08:46:19;101149.31;;;0.45;93.40
83633;BME280;73595;53.084;6.696;2024-01-06T08:48:46;101114.00;;;0.26;93.42
83633;BME280;73595;53.084;6.696;2024-01-06T08:51:16;101092.00;;;0.04;93.52
83633;BME280;73595;53.084;6.696;2024-01-06T08:53:41;101159.56;;;0.48;93.51
83633;BME280;73595;53.084;6.696;2024-01-06T08:56:07;101130.47;;;0.27;93.19
83633;BME280;73595;53.084;6.696;2024-01-06T08:58:32;101140.53;;;0.33;93.27
83633;BME280;73595;53.084;6.696;2024-01-06T09:00:59;100990.34;;;-0.65;93.03
83633;BME280;73595;53.084;6.696;2024-01-06T09:03:25;101151.69;;;0.35;93.19
83633;BME280;73595;53.084;6.696;2024-01-06T09:05:53;101142.66;;;0.26;93.29
83633;BME280;73595;53.084;6.696;2024-01-06T09:08:19;101173.44;;;0.48;93.79
83633;BME280;73595;53.084;6.696;2024-01-06T09:10:44;101183.84;;;0.48;93.78
83633;BME280;73595;53.084;6.696;2024-01-06T09:13:10;101174.75;;;0.41;93.48
83633;BME280;73595;53.084;6.696;2024-01-06T09:15:36;101191.47;;;0.51;93.15
83633;BME280;73595;53.084;6.696;2024-01-06T09:18:01;101187.97;;;0.52;93.45
83633;BME280;73595;53.084;6.696;2024-01-06T09:20:28;101182.28;;;0.46;93.41
83633;BME280;73595;53.084;6.696;2024-01-06T09:22:53;101189.28;;;0.45;92.88
83633;BME280;73595;53.084;6.696;2024-01-06T09:25:18;101197.44;;;0.53;93.32
83633;BME280;73595;53.084;6.696;2024-01-06T09:27:44;101175.78;;;0.39;93.48
83633;BME280;73595;53.084;6.696;2024-01-06T09:30:10;101197.81;;;0.47;93.43
83633;BME280;73595;53.084;6.696;2024-01-06T09:32:38;101204.59;;;0.50;93.85
83633;BME280;73595;53.084;6.696;2024-01-06T09:35:04;101211.78;;;0.46;93.78
83633;BME280;73595;53.084;6.696;2024-01-06T09:37:29;101182.38;;;0.30;93.10
83633;BME280;73595;53.084;6.696;2024-01-06T09:39:54;101217.53;;;0.51;93.28
83633;BME280;73595;53.084;6.696;2024-01-06T09:42:20;101222.56;;;0.54;93.49
83633;BME280;73595;53.084;6.696;2024-01-06T09:44:46;101196.44;;;0.42;92.65
83633;BME280;73595;53.084;6.696;2024-01-06T09:47:12;101194.09;;;0.37;92.98
83633;BME280;73595;53.084;6.696;2024-01-06T09:49:38;101228.53;;;0.57;93.29
83633;BME280;73595;53.084;6.696;2024-01-06T09:52:13;101221.84;;;0.38;92.50
83633;BME280;73595;53.084;6.696;2024-01-06T09:54:51;101215.72;;;0.39;92.99
83633;BME280;73595;53.084;6.696;2024-01-06T09:57:17;101240.94;;;0.53;93.61
83633;BME280;73595;53.084;6.696;2024-01-06T09:59:44;101210.31;;;0.28;92.56
83633;BME280;73595;53.084;6.696;2024-01-06T10:02:14;101242.88;;;0.49;93.17
83633;BME280;73595;53.084;6.696;2024-01-06T10:04:40;101232.25;;;0.38;93.39
83633;BME280;73595;53.084;6.696;2024-01-06T10:07:05;101202.31;;;0.17;93.01
83633;BME280;73595;53.084;6.696;2024-01-06T10:09:31;101201.94;;;0.23;92.51
83633;BME280;73595;53.084;6.696;2024-01-06T10:11:57;101253.97;;;0.53;92.65
83633;BME280;73595;53.084;6.696;2024-01-06T10:14:25;101197.94;;;0.17;92.34
83633;BME280;73595;53.084;6.696;2024-01-06T10:16:52;101257.41;;;0.53;92.91
83633;BME280;73595;53.084;6.696;2024-01-06T10:19:18;101228.19;;;0.34;93.08
83633;BME280;73595;53.084;6.696;2024-01-06T10:21:44;101244.84;;;0.46;93.07
83633;BME280;73595;53.084;6.696;2024-01-06T10:24:09;101259.81;;;0.57;93.38
83633;BME280;73595;53.084;6.696;2024-01-06T10:26:35;101229.19;;;0.32;92.91
83633;BME280;73595;53.084;6.696;2024-01-06T10:29:01;101217.31;;;0.28;93.34
83633;BME280;73595;53.084;6.696;2024-01-06T10:31:26;101234.97;;;0.37;93.52
83633;BME280;73595;53.084;6.696;2024-01-06T10:33:52;101140.72;;;-0.27;93.52
83633;BME280;73595;53.084;6.696;2024-01-06T10:36:27;101160.81;;;-0.15;93.24
83633;BME280;73595;53.084;6.696;2024-01-06T10:39:24;101135.91;;;-0.33;92.64
83633;BME280;73595;53.084;6.696;2024-01-06T10:41:52;101282.81;;;0.50;92.96
83633;BME280;73595;53.084;6.696;2024-01-06T10:44:32;101256.47;;;0.40;93.38
83633;BME280;73595;53.084;6.696;2024-01-06T10:47:31;101219.44;;;0.21;93.62
83633;BME280;73595;53.084;6.696;2024-01-06T10:50:17;101259.66;;;0.45;94.13
83633;BME280;73595;53.084;6.696;2024-01-06T10:52:43;101251.81;;;0.31;92.62
83633;BME280;73595;53.084;6.696;2024-01-06T10:55:33;101272.38;;;0.50;92.96
83633;BME280;73595;53.084;6.696;2024-01-06T10:58:47;101219.63;;;0.18;93.64
83633;BME280;73595;53.084;6.696;2024-01-06T11:01:21;101291.41;;;0.52;93.20
83633;BME280;73595;53.084;6.696;2024-01-06T11:04:02;101247.53;;;0.30;93.36
83633;BME280;73595;53.084;6.696;2024-01-06T11:07:31;101163.44;;;-0.15;93.73
83633;BME280;73595;53.084;6.696;2024-01-06T11:11:14;101292.13;;;0.54;93.92
83633;BME280;73595;53.084;6.696;2024-01-06T11:15:00;101300.69;;;0.56;93.75
83633;BME280;73595;53.084;6.696;2024-01-06T11:21:20;101307.22;;;0.49;93.20
83633;BME280;73595;53.084;6.696;2024-01-06T11:24:18;101299.66;;;0.44;93.28
83633;BME280;73595;53.084;6.696;2024-01-06T11:27:06;101305.16;;;0.54;94.60
83633;BME280;73595;53.084;6.696;2024-01-06T11:29:57;101257.69;;;0.20;94.33
83633;BME280;73595;53.084;6.696;2024-01-06T11:32:42;101293.59;;;0.44;93.52
83633;BME280;73595;53.084;6.696;2024-01-06T11:35:34;101306.28;;;0.50;93.60
83633;BME280;73595;53.084;6.696;2024-01-06T11:38:51;101304.97;;;0.57;93.25
83633;BME280;73595;53.084;6.696;2024-01-06T11:41:57;101302.28;;;0.59;93.19
83633;BME280;73595;53.084;6.696;2024-01-06T11:44:51;101302.28;;;0.59;93.63
83633;BME280;73595;53.084;6.696;2024-01-06T11:47:54;101285.78;;;0.44;93.44
83633;BME280;73595;53.084;6.696;2024-01-06T11:50:43;101236.09;;;0.18;93.52
83633;BME280;73595;53.084;6.696;2024-01-06T11:53:11;101314.19;;;0.48;93.22
83633;BME280;73595;53.084;6.696;2024-01-06T11:55:39;101289.34;;;0.29;93.35
83633;BME280;73595;53.084;6.696;2024-01-06T11:58:05;101189.47;;;-0.29;92.95
83633;BME280;73595;53.084;6.696;2024-01-06T12:00:33;101306.56;;;0.45;93.80
83633;BME280;73595;53.084;6.696;2024-01-06T12:03:02;101286.00;;;0.26;93.31
83633;BME280;73595;53.084;6.696;2024-01-06T12:06:03;101319.59;;;0.45;92.67
83633;BME280;73595;53.084;6.696;2024-01-06T12:08:29;101297.72;;;0.34;91.58
83633;BME280;73595;53.084;6.696;2024-01-06T12:11:05;101300.59;;;0.29;91.72
83633;BME280;73595;53.084;6.696;2024-01-06T12:13:32;101285.44;;;0.21;92.32
83633;BME280;73595;53.084;6.696;2024-01-06T12:15:57;101310.56;;;0.37;92.39
83633;BME280;73595;53.084;6.696;2024-01-06T12:18:25;101319.66;;;0.44;93.10
83633;BME280;73595;53.084;6.696;2024-01-06T12:20:52;101290.16;;;0.29;92.38
83633;BME280;73595;53.084;6.696;2024-01-06T12:23:27;101315.66;;;0.38;92.10
83633;BME280;73595;53.084;6.696;2024-01-06T12:25:55;101323.88;;;0.46;91.81
83633;BME280;73595;53.084;6.696;2024-01-06T12:28:21;101287.56;;;0.29;92.15
83633;BME280;73595;53.084;6.696;2024-01-06T12:30:47;101282.44;;;0.28;92.21
83633;BME280;73595;53.084;6.696;2024-01-06T12:33:12;101328.06;;;0.49;92.16
83633;BME280;73595;53.084;6.696;2024-01-06T12:35:40;101312.06;;;0.41;92.70
83633;BME280;73595;53.084;6.696;2024-01-06T12:38:11;101313.34;;;0.34;92.06
83633;BME280;73595;53.084;6.696;2024-01-06T12:40:38;101292.03;;;0.27;91.71
83633;BME280;73595;53.084;6.696;2024-01-06T12:43:09;101271.00;;;0.16;92.18
83633;BME280;73595;53.084;6.696;2024-01-06T12:45:36;101231.22;;;-0.16;92.11
83633;BME280;73595;53.084;6.696;2024-01-06T12:48:13;101242.31;;;-0.13;91.88
83633;BME280;73595;53.084;6.696;2024-01-06T12:50:41;101324.16;;;0.42;90.82
83633;BME280;73595;53.084;6.696;2024-01-06T12:53:18;101235.03;;;-0.08;90.94
83633;BME280;73595;53.084;6.696;2024-01-06T12:59:34;101327.22;;;0.34;90.74
83633;BME280;73595;53.084;6.696;2024-01-06T13:02:01;101269.78;;;0.07;91.08
83633;BME280;73595;53.084;6.696;2024-01-06T13:04:34;101329.25;;;0.29;91.45
83633;BME280;73595;53.084;6.696;2024-01-06T13:06:59;101328.91;;;0.35;90.82
83633;BME280;73595;53.084;6.696;2024-01-06T13:09:25;101347.41;;;0.45;91.47
83633;BME280;73595;53.084;6.696;2024-01-06T13:11:51;101276.19;;;0.02;90.90
83633;BME280;73595;53.084;6.696;2024-01-06T13:14:19;101316.47;;;0.10;90.75
83633;BME280;73595;53.084;6.696;2024-01-06T13:16:46;101361.38;;;0.44;92.00